createdAt,value
2023-01-13T00:01:26.293Z,16.35
2023-01-13T00:03:54.134Z,15.15
2023-01-13T00:06:26.019Z,17.92
2023-01-13T00:08:55.087Z,16.98
2023-01-13T00:11:23.245Z,18.42
2023-01-13T00:13:52.396Z,17.92
2023-01-13T00:16:21.324Z,19.30
2023-01-13T00:18:49.908Z,19.83
2023-01-13T00:21:20.352Z,18.45
2023-01-13T00:23:47.903Z,17.67
2023-01-13T00:26:18.974Z,19.15
2023-01-13T00:28:47.334Z,17.83
2023-01-13T00:31:18.318Z,18.67
2023-01-13T00:33:46.222Z,16.70
2023-01-13T00:36:15.243Z,17.15
2023-01-13T00:38:43.242Z,16.70
2023-01-13T00:41:17.999Z,13.13
2023-01-13T00:43:45.779Z,15.40
2023-01-13T00:46:16.456Z,16.30
2023-01-13T00:51:15.148Z,16.13
2023-01-13T00:53:45.573Z,14.45
2023-01-13T00:58:58.962Z,14.35
2023-01-13T01:01:27.372Z,14.55
2023-01-13T01:03:55.123Z,15.30
2023-01-13T01:06:25.559Z,16.75
2023-01-13T01:08:55.063Z,15.52
2023-01-13T01:11:25.984Z,12.07
2023-01-13T01:13:55.464Z,14.55
2023-01-13T01:16:24.567Z,16.63
2023-01-13T01:18:53.360Z,16.33
2023-01-13T01:21:22.322Z,16.02
2023-01-13T01:23:51.425Z,15.10
2023-01-13T01:26:22.219Z,17.23
2023-01-13T01:28:49.976Z,16.52
2023-01-13T01:31:22.832Z,15.85
2023-01-13T01:33:51.155Z,16.88
2023-01-13T01:36:20.462Z,15.75
2023-01-13T01:38:48.280Z,14.63
2023-01-13T01:41:19.230Z,14.68
2023-01-13T01:44:03.285Z,14.57
2023-01-13T01:46:39.290Z,14.15
2023-01-13T01:49:18.395Z,15.82
2023-01-13T01:51:58.247Z,15.95
2023-01-13T01:54:53.289Z,14.57
2023-01-13T01:57:26.687Z,17.38
2023-01-13T01:59:54.622Z,18.00
2023-01-13T02:02:22.757Z,16.40
2023-01-13T02:04:54.295Z,16.95
2023-01-13T02:07:25.761Z,15.35
2023-01-13T02:09:56.324Z,14.60
2023-01-13T02:12:32.134Z,14.60
2023-01-13T02:15:11.096Z,24.60
2023-01-13T02:17:55.377Z,37.95
2023-01-13T02:20:51.201Z,68.43
2023-01-13T02:23:57.239Z,36.65
2023-01-13T02:26:47.474Z,18.88
2023-01-13T02:30:30.190Z,17.13
2023-01-13T02:33:31.357Z,14.25
2023-01-13T02:38:38.574Z,14.82
2023-01-13T02:41:40.383Z,17.52
2023-01-13T02:44:11.259Z,16.80
2023-01-13T02:46:59.090Z,17.88
2023-01-13T02:49:37.725Z,16.35
2023-01-13T02:52:28.222Z,21.15
2023-01-13T02:55:01.594Z,30.10
2023-01-13T02:57:33.229Z,28.17
2023-01-13T03:00:01.415Z,23.55
2023-01-13T03:02:28.933Z,18.50
2023-01-13T03:04:58.606Z,18.77
2023-01-13T03:07:43.452Z,16.33
2023-01-13T03:10:30.187Z,19.98
2023-01-13T03:13:16.308Z,18.58
2023-01-13T03:16:12.739Z,17.58
2023-01-13T03:18:55.387Z,16.80
2023-01-13T03:21:53.702Z,17.10
2023-01-13T03:24:35.261Z,20.42
2023-01-13T03:27:07.208Z,20.77
2023-01-13T03:29:40.492Z,18.67
2023-01-13T03:32:08.677Z,26.13
2023-01-13T03:34:46.037Z,27.30
2023-01-13T03:37:16.571Z,17.40
2023-01-13T03:39:50.973Z,17.13
2023-01-13T03:42:22.244Z,18.88
2023-01-13T03:44:55.143Z,17.27
2023-01-13T03:47:32.715Z,18.33
2023-01-13T03:50:12.564Z,22.63
2023-01-13T03:52:47.131Z,19.25
2023-01-13T03:55:20.785Z,15.45
2023-01-13T03:58:28.569Z,16.58
2023-01-13T04:01:30.442Z,14.65
2023-01-13T04:03:59.181Z,14.23
2023-01-13T04:06:42.401Z,13.70
2023-01-13T04:09:18.912Z,18.55
2023-01-13T04:11:53.940Z,19.67
2023-01-13T04:14:25.179Z,20.48
2023-01-13T04:16:56.878Z,18.38
2023-01-13T04:19:25.434Z,19.38
2023-01-13T04:21:53.061Z,21.95
2023-01-13T04:24:20.352Z,19.33
2023-01-13T04:26:47.686Z,19.95
2023-01-13T04:29:16.415Z,18.17
2023-01-13T04:31:44.815Z,15.10
2023-01-13T04:34:13.541Z,13.48
2023-01-13T04:36:40.865Z,15.15
2023-01-13T04:39:08.221Z,15.93
2023-01-13T04:41:53.982Z,17.00
2023-01-13T04:44:21.350Z,16.05
2023-01-13T04:46:48.747Z,17.23
2023-01-13T04:49:16.443Z,17.70
2023-01-13T04:51:44.198Z,19.30
2023-01-13T04:54:11.779Z,15.73
2023-01-13T04:56:40.648Z,17.52
2023-01-13T04:59:10.538Z,16.92
2023-01-13T05:01:38.675Z,16.77
2023-01-13T05:04:15.655Z,16.17
2023-01-13T05:06:43.643Z,15.25
2023-01-13T05:09:13.470Z,15.95
2023-01-13T05:11:59.187Z,15.10
2023-01-13T05:14:45.638Z,13.13
2023-01-13T05:17:23.103Z,15.70
2023-01-13T05:19:50.890Z,15.25
2023-01-13T05:22:36.475Z,13.13
2023-01-13T05:25:22.123Z,40.25
2023-01-13T05:27:53.298Z,24.02
2023-01-13T05:32:57.535Z,21.95
2023-01-13T05:35:25.989Z,21.23
2023-01-13T05:37:55.390Z,15.85
2023-01-13T05:40:41.382Z,18.50
2023-01-13T05:43:21.125Z,21.20
2023-01-13T05:46:08.170Z,17.92
2023-01-13T05:48:40.988Z,16.77
2023-01-13T05:51:10.439Z,18.27
2023-01-13T05:53:38.090Z,27.45
2023-01-13T05:56:07.246Z,32.08
2023-01-13T05:58:35.076Z,26.23
2023-01-13T06:01:05.850Z,18.52
2023-01-13T06:03:36.564Z,16.20
2023-01-13T06:06:05.286Z,16.83
2023-01-13T06:08:32.880Z,19.35
2023-01-13T06:11:00.422Z,21.30
2023-01-13T06:13:28.300Z,18.02
2023-01-13T06:15:59.409Z,19.98
2023-01-13T06:18:27.948Z,24.23
2023-01-13T06:20:57.099Z,18.75
2023-01-13T06:23:26.104Z,18.67
2023-01-13T06:26:17.801Z,16.85
2023-01-13T06:28:45.882Z,20.58
2023-01-13T06:31:14.762Z,21.15
2023-01-13T06:33:58.044Z,24.65
2023-01-13T06:36:39.845Z,22.90
2023-01-13T06:39:09.640Z,22.40
2023-01-13T06:41:55.565Z,25.17
2023-01-13T06:44:24.687Z,23.23
2023-01-13T06:46:52.841Z,21.08
2023-01-13T06:49:21.715Z,22.75
2023-01-13T06:51:49.740Z,25.23
2023-01-13T06:54:17.039Z,25.60
2023-01-13T06:56:45.469Z,26.85
2023-01-13T06:59:13.116Z,25.25
2023-01-13T07:01:41.457Z,26.85
2023-01-13T07:04:08.922Z,24.40
2023-01-13T07:06:36.291Z,25.73
2023-01-13T07:09:05.094Z,22.35
2023-01-13T07:11:33.992Z,21.48
2023-01-13T07:14:22.194Z,22.00
2023-01-13T07:16:49.508Z,22.33
2023-01-13T07:19:23.382Z,21.65
2023-01-13T07:21:52.960Z,22.35
2023-01-13T07:24:21.062Z,22.40
2023-01-13T07:26:50.589Z,25.48
2023-01-13T07:29:18.227Z,25.92
2023-01-13T07:31:48.935Z,23.48
2023-01-13T07:34:17.240Z,29.15
2023-01-13T07:36:44.737Z,34.20
2023-01-13T07:39:12.711Z,30.83
2023-01-13T07:41:58.517Z,29.73
2023-01-13T07:44:34.161Z,30.15
2023-01-13T07:47:03.427Z,28.42
2023-01-13T07:49:32.410Z,23.33
2023-01-13T07:51:59.877Z,27.33
2023-01-13T07:54:40.302Z,24.73
2023-01-13T07:57:08.911Z,28.27
2023-01-13T07:59:36.301Z,41.28
2023-01-13T08:02:03.928Z,30.17
2023-01-13T08:04:31.888Z,26.17
2023-01-13T08:07:00.286Z,28.45
2023-01-13T08:09:28.069Z,26.85
2023-01-13T08:12:15.358Z,24.83
2023-01-13T08:14:44.833Z,28.20
2023-01-13T08:17:15.447Z,29.55
2023-01-13T08:19:44.432Z,36.38
2023-01-13T08:22:11.783Z,36.92
2023-01-13T08:24:39.115Z,31.27
2023-01-13T08:27:06.651Z,33.45
2023-01-13T08:29:34.132Z,28.67
2023-01-13T08:32:01.641Z,25.67
2023-01-13T08:34:28.995Z,25.80
2023-01-13T08:36:57.187Z,25.10
2023-01-13T08:39:26.344Z,23.45
2023-01-13T08:41:58.950Z,28.35
2023-01-13T08:44:30.129Z,29.55
2023-01-13T08:46:57.870Z,32.78
2023-01-13T08:49:26.639Z,31.23
2023-01-13T08:51:54.609Z,35.05
2023-01-13T08:54:22.164Z,34.92
2023-01-13T08:56:50.739Z,37.00
2023-01-13T08:59:20.876Z,34.83
2023-01-13T09:01:48.677Z,31.58
2023-01-13T09:04:23.739Z,27.60
2023-01-13T09:06:52.317Z,27.20
2023-01-13T09:09:19.580Z,29.13
2023-01-13T09:12:09.050Z,34.55
2023-01-13T09:14:38.622Z,32.55
2023-01-13T09:17:07.531Z,34.67
2023-01-13T09:19:35.474Z,33.55
2023-01-13T09:22:03.636Z,33.78
2023-01-13T09:24:31.671Z,33.63
2023-01-13T09:26:59.054Z,31.85
2023-01-13T09:29:26.665Z,34.10
2023-01-13T09:31:54.135Z,31.85
2023-01-13T09:34:41.584Z,30.88
2023-01-13T09:37:09.618Z,33.63
2023-01-13T09:39:38.106Z,32.88
2023-01-13T09:42:41.961Z,32.20
2023-01-13T09:45:13.833Z,31.42
2023-01-13T09:48:03.551Z,30.77
2023-01-13T09:50:40.677Z,31.25
2023-01-13T09:53:18.255Z,32.95
2023-01-13T09:55:46.522Z,35.25
2023-01-13T09:58:23.498Z,32.00
2023-01-13T10:01:28.628Z,37.92
2023-01-13T10:03:55.949Z,40.08
2023-01-13T10:06:39.953Z,35.80
2023-01-13T10:09:14.843Z,52.70
2023-01-13T10:12:04.144Z,51.53
2023-01-13T10:14:39.977Z,33.33
2023-01-13T10:17:28.183Z,36.40
2023-01-13T10:20:03.168Z,36.80
2023-01-13T10:22:52.211Z,38.88
2023-01-13T10:25:33.519Z,38.58
2023-01-13T10:28:12.014Z,31.20
2023-01-13T10:30:46.471Z,35.35
2023-01-13T10:33:21.447Z,31.05
2023-01-13T10:35:59.676Z,31.83
2023-01-13T10:38:38.020Z,31.23
2023-01-13T10:41:28.002Z,33.45
2023-01-13T10:44:13.656Z,48.35
2023-01-13T10:46:59.652Z,32.25
2023-01-13T10:49:36.645Z,31.25
2023-01-13T10:52:25.159Z,28.83
2023-01-13T10:54:54.481Z,28.30
2023-01-13T10:57:25.415Z,29.67
2023-01-13T10:59:54.667Z,26.08
2023-01-13T11:02:31.530Z,28.27
2023-01-13T11:05:14.761Z,31.27
2023-01-13T11:07:50.638Z,31.92
2023-01-13T11:10:27.656Z,30.23
2023-01-13T11:13:34.112Z,32.92
2023-01-13T11:16:14.161Z,36.95
2023-01-13T11:19:12.171Z,31.90
2023-01-13T11:21:54.593Z,37.50
2023-01-13T11:24:50.827Z,39.65
2023-01-13T11:27:55.085Z,34.80
2023-01-13T11:30:52.336Z,33.42
2023-01-13T11:33:38.443Z,32.10
2023-01-13T11:39:16.735Z,34.80
2023-01-13T11:42:22.251Z,35.80
2023-01-13T11:45:01.888Z,33.92
2023-01-13T11:47:31.708Z,35.67
2023-01-13T11:50:00.754Z,32.00
2023-01-13T11:53:07.946Z,32.53
2023-01-13T11:55:40.205Z,32.15
2023-01-13T11:58:45.653Z,34.03
2023-01-13T12:01:25.408Z,36.67
2023-01-13T12:03:58.984Z,35.33
2023-01-13T12:06:33.891Z,35.65
2023-01-13T12:09:23.652Z,32.90
2023-01-13T12:12:20.409Z,32.85
2023-01-13T12:15:33.829Z,30.67
2023-01-13T12:18:20.050Z,31.45
2023-01-13T12:20:54.412Z,30.02
2023-01-13T12:23:25.566Z,30.27
2023-01-13T12:26:00.577Z,33.13
2023-01-13T12:28:55.694Z,27.95
2023-01-13T12:31:27.612Z,35.92
2023-01-13T12:34:05.527Z,48.75
2023-01-13T12:36:53.661Z,32.35
2023-01-13T12:39:46.063Z,32.42
2023-01-13T12:42:51.394Z,31.95
2023-01-13T12:45:29.219Z,30.40
2023-01-13T12:48:00.830Z,31.48
2023-01-13T12:50:28.363Z,33.45
2023-01-13T12:52:58.270Z,31.83
2023-01-13T12:55:26.608Z,32.40
2023-01-13T12:58:15.594Z,29.90
2023-01-13T13:00:46.910Z,31.58
2023-01-13T13:03:15.808Z,27.35
2023-01-13T13:05:55.684Z,29.25
2023-01-13T13:08:38.053Z,27.80
2023-01-13T13:11:37.657Z,27.38
2023-01-13T13:14:13.833Z,28.05
2023-01-13T13:16:52.180Z,27.17
2023-01-13T13:19:22.624Z,28.95
2023-01-13T13:22:18.155Z,29.27
2023-01-13T13:24:49.314Z,29.00
2023-01-13T13:27:48.856Z,30.30
2023-01-13T13:30:34.587Z,27.60
2023-01-13T13:33:33.872Z,26.23
2023-01-13T13:36:33.421Z,25.48
2023-01-13T13:39:34.789Z,29.52
2023-01-13T13:42:40.998Z,30.35
2023-01-13T13:45:47.993Z,29.17
2023-01-13T13:48:31.761Z,29.73
2023-01-13T13:51:03.627Z,27.92
2023-01-13T13:53:38.234Z,25.75
2023-01-13T13:56:16.827Z,26.58
2023-01-13T13:58:44.414Z,27.30
2023-01-13T14:01:37.208Z,26.88
2023-01-13T14:04:07.658Z,23.15
2023-01-13T14:06:35.613Z,24.17
2023-01-13T14:09:04.476Z,21.23
2023-01-13T14:11:34.290Z,22.30
2023-01-13T14:14:07.264Z,22.87
2023-01-13T14:16:37.672Z,41.95
2023-01-13T14:19:05.180Z,35.15
2023-01-13T14:21:34.357Z,24.50
2023-01-13T14:24:22.695Z,24.15
2023-01-13T14:26:53.542Z,24.52
2023-01-13T14:29:25.099Z,24.40
2023-01-13T14:31:55.315Z,26.00
2023-01-13T14:34:31.751Z,27.02
2023-01-13T14:37:03.054Z,27.35
2023-01-13T14:39:41.045Z,28.92
2023-01-13T14:42:17.512Z,27.75
2023-01-13T14:44:52.461Z,27.88
2023-01-13T14:47:29.942Z,26.42
2023-01-13T14:50:14.412Z,28.50
2023-01-13T14:52:51.277Z,29.23
2023-01-13T14:55:37.535Z,36.58
2023-01-13T14:58:38.195Z,38.63
2023-01-13T15:01:29.134Z,31.85
2023-01-13T15:04:17.741Z,29.42
2023-01-13T15:06:49.556Z,29.33
2023-01-13T15:09:25.383Z,26.05
2023-01-13T15:11:54.492Z,27.42
2023-01-13T15:14:32.478Z,28.88
2023-01-13T15:16:59.870Z,32.28
2023-01-13T15:19:27.778Z,29.33
2023-01-13T15:21:55.636Z,29.55
2023-01-13T15:24:22.905Z,41.90
2023-01-13T15:26:51.355Z,33.92
2023-01-13T15:29:19.241Z,38.13
2023-01-13T15:31:46.943Z,40.55
2023-01-13T15:34:14.510Z,45.60
2023-01-13T15:36:42.889Z,45.40
2023-01-13T15:39:12.535Z,41.97
2023-01-13T15:41:59.127Z,57.67
2023-01-13T15:44:45.441Z,47.08
2023-01-13T15:47:14.703Z,43.15
2023-01-13T15:49:46.231Z,44.63
2023-01-13T15:52:28.252Z,40.58
2023-01-13T15:54:56.101Z,44.42
2023-01-13T15:57:25.018Z,43.55
2023-01-13T15:59:56.037Z,42.28
2023-01-13T16:02:25.471Z,39.05
2023-01-13T16:04:54.711Z,36.40
2023-01-13T16:07:24.618Z,44.15
2023-01-13T16:09:52.659Z,41.23
2023-01-13T16:12:20.014Z,36.15
2023-01-13T16:14:47.412Z,30.02
2023-01-13T16:17:19.176Z,30.50
2023-01-13T16:19:51.234Z,30.33
2023-01-13T16:22:18.987Z,39.85
2023-01-13T16:24:46.654Z,37.40
2023-01-13T16:27:16.205Z,29.48
2023-01-13T16:29:46.172Z,38.15
2023-01-13T16:32:14.724Z,42.88
2023-01-13T16:34:42.021Z,40.22
2023-01-13T16:37:38.709Z,38.45
2023-01-13T16:40:07.054Z,40.55
2023-01-13T16:42:35.961Z,69.10
2023-01-13T16:45:08.540Z,47.47
2023-01-13T16:47:37.458Z,41.03
2023-01-13T16:50:07.169Z,38.80
2023-01-13T16:52:35.524Z,35.75
2023-01-13T16:55:10.357Z,45.83
2023-01-13T16:57:39.787Z,47.28
2023-01-13T17:00:07.743Z,46.58
2023-01-13T17:02:35.716Z,38.85
2023-01-13T17:05:03.738Z,39.50
2023-01-13T17:07:41.614Z,37.67
2023-01-13T17:10:20.303Z,37.60
2023-01-13T17:12:47.621Z,33.85
2023-01-13T17:15:18.685Z,40.60
2023-01-13T17:17:49.590Z,39.80
2023-01-13T17:20:18.724Z,58.88
2023-01-13T17:22:49.767Z,49.28
2023-01-13T17:25:22.226Z,41.35
2023-01-13T17:27:50.799Z,37.60
2023-01-13T17:30:20.114Z,36.00
2023-01-13T17:32:47.430Z,36.05
2023-01-13T17:35:19.055Z,36.83
2023-01-13T17:37:47.034Z,35.28
2023-01-13T17:40:15.014Z,39.22
2023-01-13T17:42:42.548Z,33.00
2023-01-13T17:45:12.731Z,28.52
2023-01-13T17:47:40.201Z,28.67
2023-01-13T17:50:08.966Z,25.80
2023-01-13T17:52:36.701Z,28.17
2023-01-13T17:55:11.103Z,27.13
2023-01-13T17:57:38.455Z,25.48
2023-01-13T18:00:08.029Z,25.50
2023-01-13T18:02:39.472Z,29.10
2023-01-13T18:05:07.538Z,31.73
2023-01-13T18:07:35.063Z,33.42
2023-01-13T18:10:02.452Z,26.35
2023-01-13T18:12:30.505Z,25.75
2023-01-13T18:14:58.354Z,29.20
2023-01-13T18:17:26.938Z,40.38
2023-01-13T18:20:13.431Z,33.67
2023-01-13T18:22:59.348Z,28.63
2023-01-13T18:25:45.140Z,28.35
2023-01-13T18:28:14.293Z,54.83
2023-01-13T18:30:44.004Z,43.90
2023-01-13T18:33:12.299Z,47.10
2023-01-13T18:35:40.805Z,48.25
2023-01-13T18:38:08.873Z,46.67
2023-01-13T18:40:36.797Z,43.70
2023-01-13T18:43:04.226Z,47.22
2023-01-13T18:45:40.386Z,41.72
2023-01-13T18:48:14.669Z,42.33
2023-01-13T18:50:42.161Z,41.25
2023-01-13T18:53:16.662Z,45.95
2023-01-13T18:55:44.767Z,45.15
2023-01-13T18:58:12.455Z,38.97
2023-01-13T19:00:45.490Z,41.38
2023-01-13T19:06:36.524Z,36.25
2023-01-13T19:09:39.873Z,37.28
2023-01-13T19:12:27.255Z,33.28
2023-01-13T19:15:12.795Z,35.70
2023-01-13T19:17:56.638Z,41.15
2023-01-13T19:20:27.047Z,40.55
2023-01-13T19:23:00.367Z,50.10
2023-01-13T19:25:41.629Z,56.08
2023-01-13T19:28:18.196Z,50.40
2023-01-13T19:30:54.101Z,44.95
2023-01-13T19:33:25.922Z,41.55
2023-01-13T19:35:57.616Z,40.15
2023-01-13T19:38:30.455Z,50.45
2023-01-13T19:41:34.794Z,46.90
2023-01-13T19:44:28.786Z,43.78
2023-01-13T19:50:01.994Z,59.63
2023-01-13T19:52:38.786Z,46.17
2023-01-13T19:55:16.259Z,40.53
2023-01-13T20:00:38.635Z,52.72
2023-01-13T20:03:23.009Z,42.38
2023-01-13T20:05:55.855Z,31.55
2023-01-13T20:08:31.849Z,32.50
2023-01-13T20:11:21.507Z,24.00
2023-01-13T20:14:03.382Z,22.50
2023-01-13T20:16:39.191Z,40.67
2023-01-13T20:19:15.155Z,68.43
2023-01-13T20:21:50.829Z,46.05
2023-01-13T20:24:27.573Z,25.73
2023-01-13T20:27:10.973Z,31.77
2023-01-13T20:29:41.077Z,26.20
2023-01-13T20:32:10.119Z,26.60
2023-01-13T20:34:42.419Z,31.48
2023-01-13T20:37:21.309Z,42.65
2023-01-13T20:39:51.250Z,46.22
2023-01-13T20:42:53.222Z,67.80
2023-01-13T20:45:23.741Z,44.50
2023-01-13T20:47:51.481Z,38.45
2023-01-13T20:50:35.584Z,40.53
2023-01-13T20:53:32.664Z,55.25
2023-01-13T20:56:08.567Z,69.80
2023-01-13T20:58:41.589Z,35.08
2023-01-13T21:01:14.614Z,33.30
2023-01-13T21:03:49.367Z,36.47
2023-01-13T21:06:20.800Z,29.50
2023-01-13T21:08:49.176Z,36.65
2023-01-13T21:11:41.079Z,37.33
2023-01-13T21:14:51.764Z,30.25
2023-01-13T21:17:49.293Z,27.95
2023-01-13T21:20:23.063Z,31.63
2023-01-13T21:22:53.243Z,29.02
2023-01-13T21:25:28.375Z,28.63
2023-01-13T21:28:07.984Z,51.63
2023-01-13T21:30:41.762Z,56.13
2023-01-13T21:33:17.980Z,43.60
2023-01-13T21:35:47.151Z,32.30
2023-01-13T21:38:20.217Z,33.25
2023-01-13T21:41:09.466Z,31.38
2023-01-13T21:43:56.904Z,29.13
2023-01-13T21:46:43.449Z,33.63
2023-01-13T21:49:12.271Z,29.20
2023-01-13T21:51:39.625Z,28.10
2023-01-13T21:54:07.397Z,25.80
2023-01-13T21:56:36.169Z,28.88
2023-01-13T21:59:05.379Z,33.25
2023-01-13T22:01:32.907Z,28.60
2023-01-13T22:04:12.882Z,27.75
2023-01-13T22:06:40.718Z,34.85
2023-01-13T22:09:08.075Z,27.20
2023-01-13T22:11:36.018Z,24.67
2023-01-13T22:14:07.348Z,33.00
2023-01-13T22:16:43.348Z,34.25
2023-01-13T22:19:11.040Z,34.53
2023-01-13T22:21:39.121Z,26.35
2023-01-13T22:24:06.818Z,34.30
2023-01-13T22:26:34.785Z,35.90
2023-01-13T22:29:03.230Z,42.17
2023-01-13T22:31:32.071Z,52.33
2023-01-13T22:34:00.211Z,48.40
2023-01-13T22:36:27.704Z,46.65
2023-01-13T22:38:56.987Z,44.05
2023-01-13T22:41:24.351Z,39.95
2023-01-13T22:43:52.248Z,36.65
2023-01-13T22:46:19.812Z,48.22
2023-01-13T22:48:48.501Z,49.78
2023-01-13T22:51:18.795Z,43.50
2023-01-13T22:53:47.438Z,44.45
2023-01-13T22:56:23.446Z,51.75
2023-01-13T22:58:58.624Z,43.85
2023-01-13T23:01:28.518Z,39.78
2023-01-13T23:03:57.161Z,39.13
2023-01-13T23:06:26.672Z,39.83
2023-01-13T23:08:54.781Z,41.08
2023-01-13T23:11:26.681Z,38.85
2023-01-13T23:13:59.737Z,68.93
2023-01-13T23:16:29.086Z,45.47
2023-01-13T23:18:57.862Z,33.78
2023-01-13T23:21:28.905Z,34.25
2023-01-13T23:23:58.551Z,46.92
2023-01-13T23:26:26.920Z,35.60
2023-01-13T23:28:58.039Z,33.08
2023-01-13T23:31:26.242Z,33.08
2023-01-13T23:33:53.895Z,37.63
2023-01-13T23:36:24.579Z,39.40
2023-01-13T23:38:53.716Z,31.35
2023-01-13T23:41:25.466Z,32.40
2023-01-13T23:43:58.815Z,33.22
2023-01-13T23:46:27.940Z,38.13
2023-01-13T23:48:56.795Z,36.78
2023-01-13T23:51:26.710Z,40.08
2023-01-13T23:53:55.233Z,38.13
2023-01-13T23:56:25.379Z,47.17
2023-01-13T23:58:53.765Z,165.15
